Strongs, Michigan
Current Conditions -  °F | °C
As of 7:05 AM on Sunday 25 Jan 2015 (Local Time) from KERY Reporting Station
Overcast Overcast  
Wind Chill: -6°   Ceiling: 1400
Heat Index:   Visibility: 10mi
Dew Point:   Wind: 5mph
Humidity: 100%   Direction: 10°N
Pressure: 29.96"   Gusts: NA
Location:  46.36°N, 84.97°W
Report Text: KERY 251205Z AUTO 01004KT 10SM OVC014 M16/M16 A2996 RMK AO2
Loading
Personal Weather Stations






























Interactive Weather Map New forecast layout! Learn more

10-Day Weather Forecast

Advertisements
Track Severe Weather on mobile